Poesville, Texas
Current Conditions -  °F | °C
As of 7:35 AM on Wednesday 22 Oct 2014 (Local Time) from KCPT Reporting Station
Clear Clear  
Wind Chill: 59°   Ceiling: Unl
Heat Index: 59°   Visibility: 10mi
Dew Point: 59°   Wind: 6mph
Humidity: 100%   Direction: 70°ENE
Pressure: 30.13"   Gusts: NA
Location:  32.0481°N, 97.6449°W
Report Text: KCPT 221235Z AUTO 07005KT 10SM CLR 15/15 A3013 RMK AO2
Loading
Personal Weather Stations






























Interactive Weather Map New forecast layout! Learn more

10-Day Weather Forecast

Advertisements
Track Severe Weather on mobile